Time;durP1;ratioP1;P1;durP2;ratioP2;P2;SDS_P1;SDS_P2;PMS_P1;PMS_P2;Temp;Humidity;BMP_temperature;BMP_pressure;BME280_temperature;BME280_humidity;BME280_pressure;Samples;Min_cycle;Max_cycle;Signal;HPM_P1;HPM_P2
2021/12/16 00:09:10;;;;;;;26.00;16.43;;;4.60;99.90;;;;;;4916627;29;20433;-68
2021/12/16 00:19:36;;;;;;;23.60;15.53;;;4.50;99.90;;;;;;4916081;29;20462;-67
2021/12/16 00:33:35;;;;;;;23.30;16.20;;;4.50;99.90;;;;;;4915858;29;20466;-68
2021/12/16 00:36:04;;;;;;;24.70;17.60;;;4.40;99.90;;;;;;4915668;29;20495;-68
2021/12/16 00:38:30;;;;;;;26.20;17.43;;;4.50;99.90;;;;;;4915836;29;20422;-67
2021/12/16 00:40:56;;;;;;;19.50;15.70;;;4.40;99.90;;;;;;4915788;29;20446;-68
2021/12/16 00:43:31;;;;;;;30.00;17.53;;;4.40;99.90;;;;;;4915719;29;20217;-67
2021/12/16 00:46:31;;;;;;;23.70;17.50;;;4.40;99.90;;;;;;4915603;29;20425;-68
2021/12/16 00:54:11;;;;;;;21.57;15.20;;;4.40;99.90;;;;;;4915550;29;20465;-68
2021/12/16 00:56:52;;;;;;;25.17;17.07;;;4.40;99.90;;;;;;4915397;29;20440;-68
2021/12/16 00:59:20;;;;;;;25.13;17.27;;;4.40;99.90;;;;;;4915742;29;20445;-68
2021/12/16 01:02:05;;;;;;;27.80;17.77;;;4.40;99.90;;;;;;4915516;29;20453;-68
2021/12/16 01:45:53;;;;;;;28.97;16.20;;;4.40;99.90;;;;;;4918663;29;20421;-68
2021/12/16 01:51:39;;;;;;;27.43;18.10;;;4.40;99.90;;;;;;4918924;29;20445;-68
2021/12/16 01:54:31;;;;;;;27.53;16.93;;;4.50;99.90;;;;;;4918316;29;20481;-68
2021/12/16 01:59:58;;;;;;;28.17;18.37;;;4.40;99.90;;;;;;4907049;29;20457;-68
2021/12/16 02:10:28;;;;;;;26.67;17.33;;;4.50;99.90;;;;;;4918729;29;20430;-67
2021/12/16 02:27:29;;;;;;;27.00;17.87;;;4.60;99.90;;;;;;4911882;29;20444;-68
2021/12/16 02:37:48;;;;;;;25.53;16.50;;;4.60;99.90;;;;;;4918059;29;20178;-68
2021/12/16 02:40:16;;;;;;;21.90;16.50;;;4.70;99.90;;;;;;4917735;29;20496;-67
2021/12/16 02:42:57;;;;;;;26.53;17.03;;;4.70;99.90;;;;;;4917830;29;20434;-68
2021/12/16 02:51:02;;;;;;;20.60;15.50;;;4.80;99.90;;;;;;4913703;29;20458;-68
2021/12/16 02:53:28;;;;;;;21.20;14.23;;;4.80;99.90;;;;;;4917541;29;20972;-68
2021/12/16 02:55:54;;;;;;;23.47;15.90;;;4.70;99.90;;;;;;4917386;29;20798;-68
2021/12/16 02:58:21;;;;;;;23.77;15.80;;;4.70;99.90;;;;;;4917686;29;20418;-68
2021/12/16 03:00:54;;;;;;;22.60;15.33;;;4.80;99.90;;;;;;4917615;29;20470;-67
2021/12/16 03:03:20;;;;;;;23.43;15.77;;;4.90;99.90;;;;;;4917455;29;20518;-68
2021/12/16 03:05:45;;;;;;;22.27;15.80;;;4.90;99.90;;;;;;4917330;29;20501;-68
2021/12/16 03:08:11;;;;;;;22.20;15.97;;;4.90;99.90;;;;;;4917424;29;20177;-68
2021/12/16 03:13:34;;;;;;;24.70;15.67;;;4.80;99.90;;;;;;4917341;29;20253;-68
2021/12/16 03:19:12;;;;;;;23.57;17.20;;;4.70;99.90;;;;;;4908984;29;20434;-68
2021/12/16 03:21:46;;;;;;;24.47;16.53;;;4.90;99.90;;;;;;4916188;29;20877;-68
2021/12/16 03:34:56;;;;;;;27.57;17.60;;;5.10;99.90;;;;;;4916935;29;20461;-68
2021/12/16 03:37:24;;;;;;;21.03;15.10;;;5.10;99.90;;;;;;4916719;29;20415;-68
2021/12/16 03:39:55;;;;;;;24.60;15.40;;;5.20;99.90;;;;;;4916867;29;20477;-68
2021/12/16 03:42:26;;;;;;;19.90;14.10;;;5.20;99.90;;;;;;4916889;29;20939;-68
2021/12/16 03:44:58;;;;;;;24.20;16.07;;;5.30;99.90;;;;;;4916820;29;20418;-68
2021/12/16 03:47:41;;;;;;;21.27;15.87;;;5.30;99.90;;;;;;4916711;29;20919;-68
2021/12/16 03:50:11;;;;;;;21.80;14.53;;;5.30;99.90;;;;;;4916507;29;20426;-68
2021/12/16 03:52:37;;;;;;;21.67;15.30;;;5.30;99.90;;;;;;4916546;29;20434;-68
2021/12/16 03:55:04;;;;;;;25.47;16.80;;;5.40;99.90;;;;;;4915452;29;20843;-68
2021/12/16 03:57:32;;;;;;;24.53;16.27;;;5.30;99.90;;;;;;4916193;29;20280;-68
2021/12/16 03:59:58;;;;;;;24.37;15.90;;;5.30;99.90;;;;;;4916582;29;20477;-68
2021/12/16 04:02:32;;;;;;;24.27;15.90;;;5.30;99.90;;;;;;4916366;29;20469;-68
2021/12/16 04:04:59;;;;;;;21.97;15.40;;;5.20;99.90;;;;;;4916306;29;20427;-68
2021/12/16 04:07:29;;;;;;;24.40;16.50;;;5.20;99.90;;;;;;4916240;29;20465;-67
2021/12/16 04:09:55;;;;;;;29.90;18.33;;;5.20;99.90;;;;;;4916257;29;20458;-67
2021/12/16 04:12:23;;;;;;;24.10;16.00;;;5.10;99.90;;;;;;4916706;29;20466;-68
2021/12/16 04:14:51;;;;;;;25.33;17.13;;;5.10;99.90;;;;;;4916169;29;20687;-68
2021/12/16 04:17:20;;;;;;;25.30;17.73;;;5.00;99.90;;;;;;4915971;29;20794;-68
2021/12/16 04:19:47;;;;;;;27.03;16.47;;;4.90;99.90;;;;;;4916122;29;20418;-68
2021/12/16 04:22:26;;;;;;;30.60;19.23;;;4.80;99.90;;;;;;4915958;29;20970;-68
2021/12/16 04:24:53;;;;;;;27.40;19.83;;;4.80;99.90;;;;;;4916123;29;20449;-68
2021/12/16 04:27:19;;;;;;;29.87;18.10;;;4.80;99.90;;;;;;4915890;29;20445;-68
2021/12/16 04:29:45;;;;;;;27.10;18.00;;;4.80;99.90;;;;;;4916042;29;21148;-68
2021/12/16 04:32:11;;;;;;;28.70;17.97;;;4.70;99.90;;;;;;4915928;29;20194;-68
2021/12/16 04:34:36;;;;;;;29.30;18.70;;;4.70;99.90;;;;;;4915857;29;20521;-68
2021/12/16 04:37:03;;;;;;;31.73;17.73;;;4.70;99.90;;;;;;4914233;29;20456;-68
2021/12/16 04:39:31;;;;;;;31.20;18.03;;;4.70;99.90;;;;;;4915957;29;20173;-68
2021/12/16 04:41:57;;;;;;;29.80;18.00;;;4.70;99.90;;;;;;4915738;29;20812;-68
2021/12/16 04:44:24;;;;;;;29.83;18.90;;;4.70;99.90;;;;;;4915969;29;20469;-69
2021/12/16 04:46:51;;;;;;;30.47;18.67;;;4.80;99.90;;;;;;4915524;29;20429;-68
2021/12/16 04:49:18;;;;;;;30.73;19.03;;;4.80;99.90;;;;;;4915685;29;20422;-68
2021/12/16 04:51:47;;;;;;;27.10;17.87;;;4.80;99.90;;;;;;4915782;29;20809;-69
2021/12/16 04:54:17;;;;;;;32.20;18.50;;;4.70;99.90;;;;;;4915611;29;20473;-68
2021/12/16 04:56:42;;;;;;;36.73;20.17;;;4.70;99.90;;;;;;4915378;29;20798;-68
2021/12/16 04:59:11;;;;;;;32.60;20.43;;;4.70;99.90;;;;;;4915629;29;20430;-68
2021/12/16 05:01:43;;;;;;;35.40;20.17;;;4.70;99.90;;;;;;4915587;29;20667;-68
2021/12/16 05:04:09;;;;;;;36.60;20.87;;;4.70;99.90;;;;;;4915447;29;20791;-68
2021/12/16 05:06:35;;;;;;;37.53;20.30;;;4.70;99.90;;;;;;4914896;29;20429;-68
2021/12/16 05:09:01;;;;;;;37.40;20.73;;;4.70;99.90;;;;;;4915555;29;20780;-68
2021/12/16 05:11:28;;;;;;;34.10;19.90;;;4.80;99.90;;;;;;4915337;29;20469;-68
2021/12/16 05:13:53;;;;;;;36.57;21.10;;;4.80;99.90;;;;;;4915612;29;20458;-68
2021/12/16 05:16:19;;;;;;;36.10;20.50;;;4.90;99.90;;;;;;4915204;29;20416;-68
2021/12/16 05:18:46;;;;;;;34.53;21.53;;;4.90;99.90;;;;;;4915444;29;20225;-68
2021/12/16 05:21:38;;;;;;;34.33;20.33;;;5.00;99.90;;;;;;4915385;29;20719;-68
2021/12/16 05:26:46;;;;;;;41.43;24.70;;;4.90;99.90;;;;;;4915305;29;20489;-68
2021/12/16 05:29:13;;;;;;;34.63;21.40;;;4.90;99.90;;;;;;4915380;29;20442;-68
2021/12/16 05:31:39;;;;;;;36.07;19.87;;;4.80;99.90;;;;;;4915241;29;20438;-68
2021/12/16 05:34:07;;;;;;;34.63;20.57;;;4.80;99.90;;;;;;4915265;29;20476;-68
2021/12/16 05:36:33;;;;;;;34.67;17.90;;;4.90;99.90;;;;;;4914941;29;20468;-68
2021/12/16 05:38:59;;;;;;;26.80;17.00;;;4.80;99.90;;;;;;4915247;29;20917;-68
2021/12/16 05:41:25;;;;;;;29.40;16.20;;;4.70;99.90;;;;;;4915055;29;20269;-68
2021/12/16 05:43:51;;;;;;;30.30;17.93;;;4.70;99.90;;;;;;4915281;29;20429;-68
2021/12/16 05:46:20;;;;;;;31.20;17.63;;;4.70;99.90;;;;;;4913751;29;20438;-68
2021/12/16 05:48:48;;;;;;;28.33;17.33;;;4.70;99.90;;;;;;4915144;29;20450;-68
2021/12/16 05:51:24;;;;;;;29.13;16.73;;;4.90;99.90;;;;;;4915069;29;20537;-68
2021/12/16 05:53:51;;;;;;;27.10;16.30;;;5.00;99.90;;;;;;4915201;29;20865;-68
2021/12/16 05:56:17;;;;;;;32.30;17.60;;;5.10;99.90;;;;;;4914797;29;20433;-68
2021/12/16 05:58:44;;;;;;;28.67;18.80;;;5.10;99.90;;;;;;4915134;29;20508;-68
2021/12/16 06:01:32;;;;;;;29.63;16.90;;;5.20;99.90;;;;;;4915003;29;20446;-68
2021/12/16 06:03:58;;;;;;;27.23;16.73;;;5.40;99.90;;;;;;4915039;29;20802;-69
2021/12/16 06:06:25;;;;;;;26.10;16.50;;;5.40;99.90;;;;;;4914694;29;20458;-68
2021/12/16 06:08:52;;;;;;;29.30;18.00;;;5.40;99.90;;;;;;4915113;29;20429;-68
2021/12/16 06:11:21;;;;;;;29.53;18.70;;;5.50;99.90;;;;;;4914813;29;20647;-68
2021/12/16 06:14:10;;;;;;;25.77;16.27;;;5.40;99.90;;;;;;4915208;29;20469;-68
2021/12/16 06:27:39;;;;;;;25.73;16.43;;;5.30;99.90;;;;;;4918458;29;20457;-68
2021/12/16 06:30:09;;;;;;;28.33;17.60;;;5.30;99.90;;;;;;4918149;29;20771;-68
2021/12/16 06:32:35;;;;;;;31.17;19.00;;;5.20;99.90;;;;;;4918031;29;20533;-68
2021/12/16 06:35:01;;;;;;;29.17;18.03;;;5.20;99.90;;;;;;4917824;29;21011;-68
2021/12/16 06:37:27;;;;;;;27.00;18.03;;;5.30;99.90;;;;;;4918020;29;20179;-68
2021/12/16 06:39:52;;;;;;;32.20;17.60;;;5.20;99.90;;;;;;4917812;29;20975;-68
2021/12/16 06:42:19;;;;;;;27.93;16.80;;;5.30;99.90;;;;;;4917884;29;20190;-68
2021/12/16 06:45:02;;;;;;;28.23;16.87;;;5.40;99.90;;;;;;4917880;29;20186;-68
2021/12/16 06:47:36;;;;;;;27.90;17.10;;;5.40;99.90;;;;;;4917819;29;20446;-68
2021/12/16 06:50:03;;;;;;;26.10;16.00;;;5.40;99.90;;;;;;4917837;29;20445;-68
2021/12/16 06:52:36;;;;;;;29.77;17.90;;;5.50;99.90;;;;;;4917640;29;20990;-68
2021/12/16 06:55:29;;;;;;;29.27;18.13;;;5.50;99.90;;;;;;4917682;29;20467;-68
2021/12/16 06:57:57;;;;;;;25.87;16.00;;;5.60;99.90;;;;;;4916674;29;20510;-68
2021/12/16 07:00:38;;;;;;;23.90;16.00;;;5.70;99.90;;;;;;4917451;29;20429;-68
2021/12/16 07:03:06;;;;;;;28.10;18.10;;;5.70;99.90;;;;;;4917587;29;20425;-68
2021/12/16 07:05:36;;;;;;;25.40;17.00;;;5.70;99.90;;;;;;4917286;29;20454;-68
2021/12/16 07:08:04;;;;;;;30.97;17.40;;;5.60;99.90;;;;;;4917578;29;20425;-68
2021/12/16 07:10:30;;;;;;;28.60;15.53;;;5.60;99.90;;;;;;4917244;29;20466;-68
2021/12/16 07:12:59;;;;;;;27.03;16.27;;;5.70;99.90;;;;;;4917355;29;20462;-68
2021/12/16 07:15:29;;;;;;;25.50;16.67;;;5.80;99.90;;;;;;4917017;29;20257;-68
2021/12/16 07:17:56;;;;;;;25.17;16.17;;;5.80;99.90;;;;;;4917268;29;20510;-68
2021/12/16 07:20:27;;;;;;;28.60;16.93;;;5.80;99.90;;;;;;4917194;29;20432;-68
2021/12/16 07:22:55;;;;;;;23.80;15.50;;;5.80;99.90;;;;;;4935535;29;20854;-68
2021/12/16 07:25:21;;;;;;;24.77;16.93;;;5.90;99.90;;;;;;4935895;29;20802;-68
2021/12/16 07:27:47;;;;;;;19.40;13.83;;;5.80;99.90;;;;;;4935991;29;20432;-68
2021/12/16 07:30:15;;;;;;;22.63;15.60;;;5.80;99.90;;;;;;4935712;29;20186;-68
2021/12/16 07:32:41;;;;;;;23.40;15.37;;;5.80;99.90;;;;;;4921059;29;20664;-68
2021/12/16 07:35:11;;;;;;;22.60;15.07;;;5.60;99.90;;;;;;4922968;29;20879;-67
2021/12/16 07:37:36;;;;;;;21.47;14.03;;;5.60;99.90;;;;;;4935906;29;20436;-68
2021/12/16 07:40:07;;;;;;;27.27;15.10;;;5.70;99.90;;;;;;4935719;29;20790;-68
2021/12/16 07:42:46;;;;;;;26.97;15.90;;;5.70;99.90;;;;;;4935585;29;20193;-68
2021/12/16 07:45:17;;;;;;;23.20;13.13;;;5.70;99.90;;;;;;4931125;29;20935;-69
2021/12/16 07:47:44;;;;;;;22.00;14.97;;;5.60;99.90;;;;;;4926753;29;20934;-68
2021/12/16 07:50:11;;;;;;;21.33;13.70;;;5.70;99.90;;;;;;4916653;29;20478;-68
2021/12/16 07:52:40;;;;;;;19.80;12.93;;;5.70;99.90;;;;;;4932709;29;20528;-68
2021/12/16 07:55:06;;;;;;;20.00;14.70;;;5.70;99.90;;;;;;4930015;29;20533;-68
2021/12/16 07:57:32;;;;;;;20.33;13.93;;;5.80;99.90;;;;;;4930932;29;20484;-68
2021/12/16 07:59:57;;;;;;;32.43;19.73;;;5.70;99.90;;;;;;4935391;29;20471;-68
2021/12/16 08:02:24;;;;;;;21.23;15.60;;;5.60;99.90;;;;;;4935169;29;20573;-68
2021/12/16 08:04:52;;;;;;;22.20;14.70;;;5.70;99.90;;;;;;4935350;29;20551;-68
2021/12/16 08:07:20;;;;;;;20.10;15.70;;;5.90;99.90;;;;;;4934885;29;20444;-68
2021/12/16 08:09:48;;;;;;;22.20;14.87;;;5.90;99.90;;;;;;4935253;29;20568;-68
2021/12/16 08:12:15;;;;;;;28.37;16.67;;;5.90;99.90;;;;;;4934945;29;20473;-68
2021/12/16 08:14:43;;;;;;;22.17;15.57;;;5.90;99.90;;;;;;4935122;29;20561;-67
2021/12/16 08:17:09;;;;;;;20.87;13.43;;;6.00;99.90;;;;;;4934846;29;20508;-68
2021/12/16 08:19:35;;;;;;;22.67;15.13;;;6.10;99.90;;;;;;4934989;29;20429;-67
2021/12/16 08:22:01;;;;;;;22.53;15.63;;;6.10;99.90;;;;;;4934581;29;20445;-67
2021/12/16 08:24:27;;;;;;;21.87;14.23;;;6.10;99.90;;;;;;4933769;29;20919;-67
2021/12/16 08:26:53;;;;;;;22.97;14.77;;;6.30;99.90;;;;;;4934835;29;20624;-68
2021/12/16 08:29:19;;;;;;;22.00;14.97;;;6.30;99.90;;;;;;4935091;29;20173;-68
2021/12/16 08:31:45;;;;;;;20.33;13.67;;;6.40;99.90;;;;;;4934848;29;20460;-68
2021/12/16 08:34:12;;;;;;;23.00;15.80;;;6.30;99.90;;;;;;4934659;29;20458;-68
2021/12/16 08:36:38;;;;;;;22.57;13.50;;;6.20;99.90;;;;;;4934569;29;20851;-68
2021/12/16 08:39:07;;;;;;;22.90;16.30;;;6.10;99.90;;;;;;4934928;29;20911;-68
2021/12/16 08:41:45;;;;;;;24.57;15.20;;;6.10;99.90;;;;;;4933968;29;20528;-68
2021/12/16 08:44:10;;;;;;;20.87;14.50;;;6.10;99.90;;;;;;4934818;29;20433;-68
2021/12/16 08:46:41;;;;;;;24.70;16.07;;;6.20;99.90;;;;;;4934490;29;20437;-69
2021/12/16 08:49:07;;;;;;;23.83;15.33;;;6.30;99.90;;;;;;4934711;29;20562;-68
2021/12/16 08:51:36;;;;;;;24.87;15.70;;;6.40;99.90;;;;;;4934439;29;20471;-69
2021/12/16 08:54:03;;;;;;;21.97;14.37;;;6.50;99.90;;;;;;4928891;29;20206;-68
2021/12/16 08:56:28;;;;;;;25.03;17.40;;;6.50;99.90;;;;;;4933028;29;20433;-68
2021/12/16 08:58:55;;;;;;;26.13;16.50;;;6.40;99.90;;;;;;4934589;29;20508;-69
2021/12/16 09:01:25;;;;;;;23.17;15.40;;;6.20;99.90;;;;;;4934924;29;20194;-69
2021/12/16 09:03:51;;;;;;;21.70;15.97;;;6.20;99.90;;;;;;4930799;29;20805;-68
2021/12/16 09:06:17;;;;;;;21.87;14.77;;;6.40;99.90;;;;;;4929921;29;20535;-69
2021/12/16 09:08:43;;;;;;;19.73;14.10;;;6.50;99.90;;;;;;4931501;29;20869;-68
2021/12/16 09:11:09;;;;;;;20.07;13.37;;;6.40;99.90;;;;;;4939955;28;20475;-68
2021/12/16 09:13:40;;;;;;;19.13;14.10;;;6.50;99.90;;;;;;4933483;29;20268;-68
2021/12/16 09:16:09;;;;;;;23.17;15.67;;;6.60;99.90;;;;;;4930944;29;21230;-69
2021/12/16 09:18:41;;;;;;;16.83;12.17;;;6.70;99.90;;;;;;4931306;29;20444;-68
2021/12/16 09:21:09;;;;;;;21.60;14.60;;;6.80;99.90;;;;;;4931132;29;20809;-68
2021/12/16 09:23:35;;;;;;;21.90;14.03;;;6.80;99.90;;;;;;4941821;28;20551;-69
2021/12/16 09:26:01;;;;;;;19.13;14.43;;;6.80;99.90;;;;;;4949939;28;20615;-68
2021/12/16 09:28:27;;;;;;;20.97;14.53;;;6.90;99.90;;;;;;4950331;28;20181;-68
2021/12/16 09:30:54;;;;;;;23.40;13.97;;;6.90;99.90;;;;;;4950689;28;20444;-68
2021/12/16 09:33:22;;;;;;;24.00;15.10;;;6.90;99.90;;;;;;4950481;28;20468;-68
2021/12/16 09:35:51;;;;;;;21.17;14.00;;;6.80;99.90;;;;;;4949948;28;20420;-68
2021/12/16 09:38:18;;;;;;;19.87;13.70;;;6.70;99.90;;;;;;4950052;29;20428;-68
2021/12/16 09:40:50;;;;;;;21.13;13.90;;;6.80;99.90;;;;;;4950149;28;20443;-68
2021/12/16 09:43:22;;;;;;;23.77;13.60;;;6.90;99.90;;;;;;4950054;28;20432;-68
2021/12/16 09:45:48;;;;;;;25.90;14.97;;;7.00;99.90;;;;;;4950004;29;20431;-69
2021/12/16 09:48:14;;;;;;;21.60;14.50;;;7.10;99.90;;;;;;4950193;29;20767;-68
2021/12/16 09:50:40;;;;;;;22.03;14.33;;;7.20;99.90;;;;;;4949932;28;20456;-68
2021/12/16 09:53:06;;;;;;;20.40;13.60;;;7.40;99.90;;;;;;4943387;28;20200;-68
2021/12/16 09:55:35;;;;;;;22.07;15.43;;;7.50;99.90;;;;;;4953643;28;20919;-68
2021/12/16 09:58:03;;;;;;;20.03;14.10;;;7.40;99.90;;;;;;4946940;28;20428;-68
2021/12/16 10:00:29;;;;;;;24.50;15.90;;;7.50;99.90;;;;;;4936260;29;21002;-68
2021/12/16 10:02:56;;;;;;;21.30;14.67;;;7.40;99.90;;;;;;4947404;29;20431;-68
2021/12/16 10:05:23;;;;;;;18.83;13.70;;;7.60;99.90;;;;;;4942530;28;20429;-63
2021/12/16 10:07:49;;;;;;;21.30;14.00;;;7.60;99.90;;;;;;4951187;29;20425;-66
2021/12/16 10:10:18;;;;;;;17.00;13.40;;;7.70;99.90;;;;;;4956288;28;20420;-65
2021/12/16 10:12:47;;;;;;;19.20;13.50;;;7.80;99.90;;;;;;4956985;28;20431;-68
2021/12/16 10:18:10;;;;;;;21.37;13.40;;;7.90;99.90;;;;;;4956732;28;20428;-68
2021/12/16 10:20:45;;;;;;;19.67;13.73;;;7.90;99.90;;;;;;4956217;28;20444;-68
2021/12/16 10:23:17;;;;;;;21.40;14.10;;;7.70;99.90;;;;;;4956162;28;20777;-69
2021/12/16 10:25:54;;;;;;;20.03;14.10;;;7.70;99.90;;;;;;4956190;28;20429;-69
2021/12/16 10:28:26;;;;;;;19.13;13.50;;;7.70;99.90;;;;;;4956324;29;20515;-68
2021/12/16 10:31:03;;;;;;;18.17;14.60;;;7.60;99.90;;;;;;4931492;29;20841;-68
2021/12/16 10:33:51;;;;;;;18.50;13.10;;;7.70;99.90;;;;;;4937017;29;20823;-69
2021/12/16 10:36:21;;;;;;;21.67;13.50;;;7.70;99.90;;;;;;4936483;29;20421;-69
2021/12/16 10:38:47;;;;;;;19.07;12.23;;;7.30;99.90;;;;;;4937107;29;20421;-68
2021/12/16 10:41:19;;;;;;;21.70;14.60;;;7.00;99.90;;;;;;4936788;29;20441;-68
2021/12/16 10:43:55;;;;;;;21.70;15.50;;;6.90;99.90;;;;;;4936928;29;20576;-68
2021/12/16 10:46:25;;;;;;;22.30;14.20;;;7.10;99.90;;;;;;4935333;29;20485;-68
2021/12/16 10:48:56;;;;;;;21.27;15.30;;;7.20;99.90;;;;;;4936862;29;20449;-68
2021/12/16 10:51:23;;;;;;;21.93;14.40;;;7.30;99.90;;;;;;4936517;29;20857;-68
2021/12/16 10:54:15;;;;;;;20.50;14.30;;;7.30;99.90;;;;;;4936491;29;20513;-68
2021/12/16 10:56:47;;;;;;;23.93;15.90;;;7.60;99.90;;;;;;4936477;29;20421;-68
2021/12/16 10:59:14;;;;;;;21.57;13.83;;;7.70;99.90;;;;;;4936712;29;20424;-68
2021/12/16 11:01:48;;;;;;;21.23;14.73;;;7.80;99.90;;;;;;4936339;29;20540;-69
2021/12/16 11:04:43;;;;;;;19.67;14.03;;;7.90;99.90;;;;;;4935989;29;20421;-68
2021/12/16 11:07:26;;;;;;;23.37;15.07;;;8.00;99.90;;;;;;4935744;29;20444;-69
2021/12/16 11:10:06;;;;;;;21.77;15.03;;;8.00;99.90;;;;;;4936492;29;20422;-68
2021/12/16 11:12:45;;;;;;;20.27;13.77;;;7.90;99.90;;;;;;4936158;29;20433;-68
2021/12/16 11:15:16;;;;;;;19.17;14.20;;;7.90;99.90;;;;;;4935284;29;20430;-68
2021/12/16 11:17:57;;;;;;;22.27;15.10;;;8.00;99.90;;;;;;4936357;29;20428;-68
2021/12/16 11:20:22;;;;;;;20.20;14.30;;;8.10;99.90;;;;;;4934785;29;20445;-68
2021/12/16 11:22:52;;;;;;;20.03;12.77;;;8.00;99.90;;;;;;4935422;28;20889;-68
2021/12/16 11:25:32;;;;;;;21.00;15.03;;;8.00;99.90;;;;;;4935872;29;20408;-68
2021/12/16 11:28:12;;;;;;;20.23;14.50;;;7.90;99.90;;;;;;4925797;29;20779;-71
2021/12/16 11:30:51;;;;;;;20.23;13.17;;;7.90;99.90;;;;;;4917059;29;20894;-70
2021/12/16 11:33:24;;;;;;;18.17;12.90;;;7.90;99.90;;;;;;4916892;29;20540;-70
2021/12/16 11:36:04;;;;;;;19.77;13.83;;;8.00;99.90;;;;;;4919407;29;20876;-68
2021/12/16 11:38:32;;;;;;;20.67;14.10;;;8.00;99.90;;;;;;4930725;29;20431;-68
2021/12/16 11:41:12;;;;;;;18.53;14.27;;;7.90;99.90;;;;;;4932522;29;20437;-68
2021/12/16 11:43:43;;;;;;;20.60;13.27;;;8.00;99.90;;;;;;4944522;29;20515;-69
2021/12/16 11:46:21;;;;;;;18.40;12.60;;;8.00;99.90;;;;;;4951337;29;20507;-68
2021/12/16 11:48:47;;;;;;;17.30;13.27;;;8.10;99.90;;;;;;4951800;29;20447;-69
2021/12/16 11:51:34;;;;;;;16.93;13.00;;;8.10;99.90;;;;;;4951277;28;20440;-68
2021/12/16 11:54:05;;;;;;;17.80;13.90;;;8.20;99.90;;;;;;4951625;28;20460;-68
2021/12/16 11:56:56;;;;;;;23.90;15.90;;;8.10;99.90;;;;;;4925312;28;20427;-68
2021/12/16 11:59:33;;;;;;;19.80;15.70;;;8.10;99.90;;;;;;4913241;29;21153;-68
2021/12/16 12:02:01;;;;;;;19.53;13.90;;;8.00;99.90;;;;;;4917010;29;20909;-68
2021/12/16 12:04:31;;;;;;;20.93;15.57;;;8.10;99.90;;;;;;4914331;29;20434;-68
2021/12/16 12:06:57;;;;;;;20.27;14.73;;;8.20;99.90;;;;;;4926719;29;20430;-67
2021/12/16 12:09:39;;;;;;;19.47;15.60;;;8.30;99.90;;;;;;4930376;29;21067;-68
2021/12/16 12:12:05;;;;;;;19.47;13.93;;;8.40;99.90;;;;;;4931829;29;20465;-68
2021/12/16 12:14:35;;;;;;;17.27;13.93;;;8.40;99.90;;;;;;4932136;29;20469;-68
2021/12/16 12:17:11;;;;;;;18.47;14.10;;;8.40;99.90;;;;;;4930986;29;20500;-68
2021/12/16 12:19:49;;;;;;;17.53;13.90;;;8.40;99.90;;;;;;4932255;29;20413;-68
2021/12/16 12:22:20;;;;;;;18.67;14.37;;;8.40;99.90;;;;;;4931470;29;20453;-68
2021/12/16 12:24:49;;;;;;;19.23;14.03;;;8.50;99.90;;;;;;4932035;29;20520;-68
2021/12/16 12:27:23;;;;;;;20.13;15.07;;;8.50;99.90;;;;;;4931822;29;20425;-68
2021/12/16 12:29:57;;;;;;;19.87;13.90;;;8.50;99.90;;;;;;4931698;29;20457;-68
2021/12/16 12:32:36;;;;;;;18.00;13.43;;;8.40;99.90;;;;;;4943612;29;21012;-68
2021/12/16 12:35:33;;;;;;;20.80;15.20;;;8.40;99.90;;;;;;4935249;29;20464;-68
2021/12/16 12:38:00;;;;;;;26.30;17.10;;;8.20;99.90;;;;;;4930201;29;20829;-68
2021/12/16 12:40:37;;;;;;;19.87;14.00;;;7.90;99.90;;;;;;4931351;29;20441;-68
2021/12/16 12:43:05;;;;;;;21.83;14.70;;;8.00;99.90;;;;;;4931485;29;20464;-68
2021/12/16 12:45:35;;;;;;;20.10;14.23;;;8.20;99.90;;;;;;4931316;29;20911;-68
2021/12/16 12:48:04;;;;;;;18.60;13.57;;;8.40;99.90;;;;;;4932174;29;20793;-68
2021/12/16 12:50:41;;;;;;;17.30;13.43;;;8.50;99.90;;;;;;4931451;29;20441;-68
2021/12/16 12:53:17;;;;;;;22.87;14.00;;;8.60;99.90;;;;;;4943933;29;20466;-68
2021/12/16 12:55:43;;;;;;;17.20;12.10;;;8.50;99.90;;;;;;4950371;28;20452;-68
2021/12/16 12:58:15;;;;;;;20.60;13.30;;;8.50;99.90;;;;;;4949355;28;20433;-68
2021/12/16 13:00:46;;;;;;;20.60;14.90;;;8.80;99.90;;;;;;4949431;28;20452;-68
2021/12/16 13:03:26;;;;;;;17.07;12.70;;;9.00;99.90;;;;;;4936880;29;20434;-68
2021/12/16 13:06:02;;;;;;;20.43;13.83;;;9.10;99.90;;;;;;4931373;29;20440;-68
2021/12/16 13:08:31;;;;;;;17.53;12.80;;;9.20;99.90;;;;;;4941547;29;20435;-68
2021/12/16 13:11:01;;;;;;;19.17;14.40;;;9.30;99.90;;;;;;4934182;29;20568;-67
2021/12/16 13:25:11;;;;;;;22.00;14.90;;;9.20;99.90;;;;;;4912268;29;20433;-68
2021/12/16 13:27:37;;;;;;;23.73;14.60;;;9.20;99.90;;;;;;4913756;29;20923;-69
2021/12/16 13:33:08;;;;;;;20.40;14.90;;;8.90;99.90;;;;;;4936858;29;20428;-68
2021/12/16 13:35:47;;;;;;;21.97;15.00;;;8.80;99.90;;;;;;4934818;29;20902;-68
2021/12/16 13:38:12;;;;;;;20.30;13.17;;;8.70;99.90;;;;;;4934744;29;20532;-69
2021/12/16 13:40:41;;;;;;;19.63;14.77;;;8.80;99.90;;;;;;4934710;29;20536;-68
2021/12/16 13:43:18;;;;;;;22.90;14.63;;;8.90;99.90;;;;;;4934842;29;20219;-68
2021/12/16 13:46:01;;;;;;;21.43;13.80;;;9.00;99.90;;;;;;4934585;29;20428;-68
2021/12/16 13:48:52;;;;;;;17.30;12.63;;;9.00;99.90;;;;;;4934843;29;20812;-68
2021/12/16 14:03:27;;;;;;;14.90;11.37;;;9.10;99.90;;;;;;4934122;29;20512;-68
2021/12/16 14:08:51;;;;;;;15.53;12.47;;;8.90;99.90;;;;;;4934173;29;20520;-68
2021/12/16 14:12:12;;;;;;;16.80;12.77;;;8.80;99.90;;;;;;4933828;29;20985;-68
2021/12/16 14:14:53;;;;;;;16.90;11.70;;;8.60;99.90;;;;;;4934015;29;20953;-68
2021/12/16 14:25:51;;;;;;;21.40;14.37;;;8.70;99.90;;;;;;4933814;29;20429;-68
2021/12/16 14:39:53;;;;;;;21.33;14.80;;;8.60;99.90;;;;;;4952446;28;20873;-67
2021/12/16 14:43:02;;;;;;;23.50;13.93;;;8.50;99.90;;;;;;4925741;28;20448;-68
2021/12/16 14:45:38;;;;;;;19.57;15.20;;;8.40;99.90;;;;;;4933303;29;20437;-68
2021/12/16 14:48:27;;;;;;;21.83;14.77;;;8.40;99.90;;;;;;4919849;29;20441;-68
2021/12/16 14:51:04;;;;;;;19.03;14.80;;;8.40;99.90;;;;;;4914969;29;20450;-68
2021/12/16 14:53:45;;;;;;;24.47;15.83;;;8.40;99.90;;;;;;4924484;29;21120;-68
2021/12/16 14:56:20;;;;;;;25.87;15.17;;;8.30;99.90;;;;;;4933185;29;20429;-68
2021/12/16 14:58:52;;;;;;;24.10;16.43;;;8.10;99.90;;;;;;4933570;29;20432;-68
2021/12/16 15:01:22;;;;;;;22.43;15.30;;;8.00;99.90;;;;;;4933982;29;20494;-68
2021/12/16 15:03:49;;;;;;;20.73;15.73;;;8.00;99.90;;;;;;4932954;29;20929;-67
2021/12/16 15:06:25;;;;;;;20.77;14.83;;;8.10;99.90;;;;;;4933161;29;20472;-68
2021/12/16 15:09:08;;;;;;;22.53;15.83;;;8.10;99.90;;;;;;4933106;29;20504;-69
2021/12/16 15:11:48;;;;;;;18.70;14.97;;;8.00;99.90;;;;;;4933131;29;20860;-68
2021/12/16 15:45:11;;;;;;;23.10;17.83;;;7.30;99.90;;;;;;4932702;29;20585;-68
2021/12/16 15:47:47;;;;;;;22.77;17.33;;;7.20;99.90;;;;;;4933136;29;20461;-67
2021/12/16 15:50:16;;;;;;;27.03;18.50;;;7.10;99.90;;;;;;4932304;29;20919;-68
2021/12/16 15:52:46;;;;;;;28.37;18.30;;;6.90;99.90;;;;;;4932264;29;20440;-68
2021/12/16 15:55:20;;;;;;;24.37;18.43;;;6.90;99.90;;;;;;4931860;29;20472;-67
2021/12/16 15:57:45;;;;;;;22.67;18.40;;;6.80;99.90;;;;;;4932563;29;20480;-68
2021/12/16 16:00:20;;;;;;;23.90;18.73;;;6.80;99.90;;;;;;4932054;29;20437;-68
2021/12/16 16:02:46;;;;;;;22.67;16.43;;;6.70;99.90;;;;;;4932337;29;20945;-68
2021/12/16 16:05:13;;;;;;;25.07;18.93;;;6.70;99.90;;;;;;4932109;29;20433;-67
2021/12/16 16:07:41;;;;;;;25.20;17.83;;;6.60;99.90;;;;;;4932487;29;20561;-68
2021/12/16 16:10:10;;;;;;;25.67;16.70;;;6.60;99.90;;;;;;4947000;29;20441;-67
2021/12/16 16:12:36;;;;;;;26.00;19.57;;;6.50;99.90;;;;;;4951600;29;20452;-68
2021/12/16 16:15:16;;;;;;;27.43;19.73;;;6.50;99.90;;;;;;4949216;29;20468;-68
2021/12/16 16:18:00;;;;;;;28.90;18.73;;;6.40;99.90;;;;;;4951186;28;20183;-68
2021/12/16 16:20:32;;;;;;;25.07;17.77;;;6.30;99.90;;;;;;4912954;29;20927;-68
2021/12/16 16:23:03;;;;;;;24.53;17.80;;;6.30;99.90;;;;;;4941945;29;20428;-68
2021/12/16 16:25:29;;;;;;;24.50;18.20;;;6.20;99.90;;;;;;4950497;28;20807;-67
2021/12/16 16:27:57;;;;;;;25.90;18.10;;;6.20;99.90;;;;;;4951319;29;20428;-68
2021/12/16 16:30:24;;;;;;;30.97;20.10;;;6.20;99.90;;;;;;4951045;28;20647;-67
2021/12/16 16:33:12;;;;;;;27.67;20.33;;;6.10;99.90;;;;;;4935455;28;20946;-67
2021/12/16 16:35:57;;;;;;;27.23;17.40;;;6.00;99.90;;;;;;4931490;29;20441;-68
2021/12/16 16:38:30;;;;;;;23.10;16.97;;;5.80;99.90;;;;;;4931814;29;20437;-68
2021/12/16 16:40:59;;;;;;;21.47;16.67;;;5.60;99.90;;;;;;4931697;29;20445;-68
2021/12/16 16:43:35;;;;;;;22.87;17.40;;;5.50;99.90;;;;;;4935576;29;20970;-68
2021/12/16 16:46:08;;;;;;;24.77;16.27;;;5.50;99.90;;;;;;4931323;29;20416;-68